Time;durP1;ratioP1;P1;durP2;ratioP2;P2;SDS_P1;SDS_P2;PMS_P1;PMS_P2;Temp;Humidity;BMP_temperature;BMP_pressure;BME280_temperature;BME280_humidity;BME280_pressure;Samples;Min_cycle;Max_cycle;Signal;HPM_P1;HPM_P2
2023/12/05 00:02:22;;;;;;;21.33;15.82;;;;;;;;;;4966493;28;20077;-76
2023/12/05 00:04:50;;;;;;;31.92;19.88;;;;;;;;;;4962725;28;20466;-75
2023/12/05 00:07:19;;;;;;;30.65;20.02;;;;;;;;;;4960863;28;20122;-75
2023/12/05 00:09:45;;;;;;;33.08;20.27;;;;;;;;;;4979672;28;20125;-76
2023/12/05 00:12:11;;;;;;;29.52;18.98;;;;;;;;;;4959768;28;20067;-73
2023/12/05 00:14:36;;;;;;;30.02;18.52;;;;;;;;;;4990864;28;20035;-73
2023/12/05 00:17:02;;;;;;;28.83;18.73;;;;;;;;;;4961012;28;20351;-74
2023/12/05 00:19:28;;;;;;;33.42;20.08;;;;;;;;;;4965124;28;20061;-72
2023/12/05 00:21:55;;;;;;;30.50;19.83;;;;;;;;;;4963809;28;20023;-73
2023/12/05 00:24:21;;;;;;;32.40;19.65;;;;;;;;;;4962492;28;20030;-73
2023/12/05 00:26:47;;;;;;;29.58;19.23;;;;;;;;;;4963136;28;20034;-72
2023/12/05 00:29:13;;;;;;;30.10;18.67;;;;;;;;;;4958679;28;20031;-73
2023/12/05 00:31:39;;;;;;;29.05;19.15;;;;;;;;;;4965510;28;20059;-73
2023/12/05 00:34:05;;;;;;;31.27;19.95;;;;;;;;;;4963950;28;20030;-73
2023/12/05 00:36:32;;;;;;;33.67;20.17;;;;;;;;;;4962108;28;20054;-73
2023/12/05 00:38:58;;;;;;;31.23;19.52;;;;;;;;;;4957970;28;20050;-72
2023/12/05 00:41:25;;;;;;;29.60;19.58;;;;;;;;;;4963282;28;20418;-73
2023/12/05 00:43:51;;;;;;;30.00;19.35;;;;;;;;;;4963774;28;20038;-74
2023/12/05 00:46:18;;;;;;;30.05;19.17;;;;;;;;;;4955527;28;20038;-73
2023/12/05 00:48:44;;;;;;;30.65;19.63;;;;;;;;;;4964474;28;20047;-73
2023/12/05 00:51:10;;;;;;;30.60;19.85;;;;;;;;;;4975083;28;20035;-73
2023/12/05 00:53:36;;;;;;;33.70;20.48;;;;;;;;;;4958309;28;20047;-73
2023/12/05 00:56:02;;;;;;;33.33;19.90;;;;;;;;;;4962441;28;20047;-73
2023/12/05 00:58:28;;;;;;;32.10;19.90;;;;;;;;;;4959734;28;20046;-73
2023/12/05 01:00:54;;;;;;;29.50;20.02;;;;;;;;;;4965836;28;20035;-73
2023/12/05 01:03:20;;;;;;;29.55;19.40;;;;;;;;;;4960047;28;20129;-73
2023/12/05 01:05:46;;;;;;;31.45;19.35;;;;;;;;;;4964327;28;20031;-73
2023/12/05 01:08:13;;;;;;;28.50;19.17;;;;;;;;;;4955178;28;20043;-73
2023/12/05 01:10:39;;;;;;;31.10;19.48;;;;;;;;;;4960889;28;20043;-73
2023/12/05 01:13:06;;;;;;;28.38;18.73;;;;;;;;;;4983155;28;20122;-72
2023/12/05 01:15:32;;;;;;;27.58;18.73;;;;;;;;;;4963287;28;20475;-73
2023/12/05 01:17:58;;;;;;;30.13;20.38;;;;;;;;;;4960131;28;20043;-73
2023/12/05 01:20:24;;;;;;;30.05;19.98;;;;;;;;;;4959860;28;20046;-73
2023/12/05 01:22:50;;;;;;;31.67;20.55;;;;;;;;;;4961533;28;20045;-73
2023/12/05 01:25:16;;;;;;;32.58;20.13;;;;;;;;;;4958564;28;20051;-73
2023/12/05 01:27:42;;;;;;;31.73;21.35;;;;;;;;;;4959612;28;20438;-73
2023/12/05 01:30:08;;;;;;;30.70;20.67;;;;;;;;;;4962819;28;20023;-73
2023/12/05 01:32:34;;;;;;;29.52;19.35;;;;;;;;;;4956676;28;20046;-73
2023/12/05 01:35:00;;;;;;;31.80;20.90;;;;;;;;;;4958372;28;20050;-72
2023/12/05 01:37:26;;;;;;;32.88;21.17;;;;;;;;;;4968649;28;20042;-72
2023/12/05 01:39:52;;;;;;;32.83;21.30;;;;;;;;;;4958159;28;20035;-74
2023/12/05 01:42:18;;;;;;;31.52;20.15;;;;;;;;;;4956609;28;20067;-73
2023/12/05 01:44:44;;;;;;;30.63;20.58;;;;;;;;;;4958702;28;20105;-72
2023/12/05 01:47:10;;;;;;;31.42;20.13;;;;;;;;;;4959184;28;20505;-73
2023/12/05 01:49:36;;;;;;;34.78;21.10;;;;;;;;;;4952591;28;20049;-73
2023/12/05 01:52:03;;;;;;;32.78;20.90;;;;;;;;;;4967068;28;20387;-74
2023/12/05 01:54:29;;;;;;;34.80;21.77;;;;;;;;;;4960862;28;21223;-73
2023/12/05 01:56:56;;;;;;;31.52;20.13;;;;;;;;;;4962651;28;20057;-72
2023/12/05 01:59:23;;;;;;;33.95;21.83;;;;;;;;;;4951868;28;20623;-72
2023/12/05 02:01:50;;;;;;;33.72;21.00;;;;;;;;;;4963486;28;20042;-72
2023/12/05 02:04:16;;;;;;;33.72;21.15;;;;;;;;;;4962925;28;20518;-72
2023/12/05 02:06:42;;;;;;;31.35;19.85;;;;;;;;;;4960907;28;20043;-72
2023/12/05 02:09:10;;;;;;;33.97;21.23;;;;;;;;;;4967052;28;20106;-72
2023/12/05 02:11:37;;;;;;;30.58;19.05;;;;;;;;;;4961393;28;20233;-75
2023/12/05 02:14:05;;;;;;;33.10;20.48;;;;;;;;;;4962088;28;20047;-74
2023/12/05 02:16:30;;;;;;;33.10;21.27;;;;;;;;;;4956824;28;20038;-74
2023/12/05 02:18:59;;;;;;;34.53;21.63;;;;;;;;;;4962149;28;20607;-75
2023/12/05 02:21:28;;;;;;;35.40;21.45;;;;;;;;;;4958039;28;20047;-75
2023/12/05 02:24:10;;;;;;;30.52;20.40;;;;;;;;;;4959206;28;20041;-75
2023/12/05 02:26:43;;;;;;;27.05;15.93;;;;;;;;;;4959926;28;20406;-74
2023/12/05 02:29:09;;;;;;;31.07;20.57;;;;;;;;;;4959006;28;20094;-75
2023/12/05 02:31:35;;;;;;;31.50;20.58;;;;;;;;;;4955372;28;20035;-75
2023/12/05 02:34:01;;;;;;;29.83;20.38;;;;;;;;;;4960641;28;20031;-75
2023/12/05 02:36:50;;;;;;;32.53;20.70;;;;;;;;;;4959072;28;20090;-75
2023/12/05 02:39:29;;;;;;;30.13;20.48;;;;;;;;;;4955012;28;20074;-75
2023/12/05 02:41:56;;;;;;;30.70;20.13;;;;;;;;;;4959838;28;20035;-75
2023/12/05 02:44:27;;;;;;;29.17;19.40;;;;;;;;;;4958413;28;20145;-75
2023/12/05 02:46:53;;;;;;;31.35;19.52;;;;;;;;;;4969303;28;20122;-75
2023/12/05 02:49:19;;;;;;;32.10;19.95;;;;;;;;;;4952350;28;20039;-74
2023/12/05 02:51:46;;;;;;;30.80;19.40;;;;;;;;;;4953980;28;20039;-75
2023/12/05 02:54:11;;;;;;;35.20;20.90;;;;;;;;;;4955847;28;20065;-75
2023/12/05 02:56:38;;;;;;;30.15;19.02;;;;;;;;;;4960445;28;20039;-75
2023/12/05 02:59:04;;;;;;;27.95;19.38;;;;;;;;;;4960035;28;20558;-75
2023/12/05 03:01:30;;;;;;;30.17;19.27;;;;;;;;;;4966414;28;20077;-75
2023/12/05 03:03:56;;;;;;;24.75;17.83;;;;;;;;;;4957758;28;20090;-75
2023/12/05 03:06:22;;;;;;;28.65;18.88;;;;;;;;;;4963713;28;20497;-75
2023/12/05 03:08:48;;;;;;;26.80;18.17;;;;;;;;;;4957622;28;20041;-75
2023/12/05 03:11:14;;;;;;;28.73;18.85;;;;;;;;;;4957504;28;20188;-74
2023/12/05 03:13:40;;;;;;;26.10;18.15;;;;;;;;;;4961530;28;20027;-75
2023/12/05 03:16:07;;;;;;;27.98;19.13;;;;;;;;;;4962377;28;20145;-75
2023/12/05 03:18:33;;;;;;;26.17;17.50;;;;;;;;;;4963651;28;20057;-75
2023/12/05 03:20:59;;;;;;;31.58;19.30;;;;;;;;;;4961936;28;20615;-75
2023/12/05 03:23:25;;;;;;;27.35;18.85;;;;;;;;;;4958961;28;20055;-74
2023/12/05 03:25:51;;;;;;;29.60;19.73;;;;;;;;;;4959701;28;20038;-74
2023/12/05 03:28:17;;;;;;;29.25;18.70;;;;;;;;;;4963489;28;20652;-74
2023/12/05 03:30:43;;;;;;;28.40;18.35;;;;;;;;;;4963137;28;20092;-77
2023/12/05 03:33:09;;;;;;;29.13;18.38;;;;;;;;;;4958162;28;20046;-75
2023/12/05 03:35:35;;;;;;;25.88;17.20;;;;;;;;;;4962346;28;20114;-74
2023/12/05 03:38:01;;;;;;;29.88;17.90;;;;;;;;;;4974142;28;20035;-74
2023/12/05 03:40:27;;;;;;;28.38;18.30;;;;;;;;;;4958569;28;20105;-74
2023/12/05 03:42:53;;;;;;;27.83;17.67;;;;;;;;;;4966733;28;20159;-75
2023/12/05 03:45:19;;;;;;;26.60;17.13;;;;;;;;;;4963065;28;20034;-74
2023/12/05 03:47:45;;;;;;;24.95;16.50;;;;;;;;;;4958705;28;20117;-74
2023/12/05 03:50:11;;;;;;;16.13;12.93;;;;;;;;;;4956107;28;20715;-74
2023/12/05 03:52:37;;;;;;;24.08;16.05;;;;;;;;;;4959988;28;20441;-74
2023/12/05 03:55:03;;;;;;;27.38;17.38;;;;;;;;;;4961782;28;20027;-74
2023/12/05 03:57:29;;;;;;;26.88;17.35;;;;;;;;;;4963207;28;20477;-73
2023/12/05 03:59:55;;;;;;;27.73;18.73;;;;;;;;;;4958621;28;20027;-74
2023/12/05 04:02:21;;;;;;;24.30;16.63;;;;;;;;;;4956583;28;20811;-74
2023/12/05 04:04:47;;;;;;;32.53;18.83;;;;;;;;;;4961986;28;20038;-74
2023/12/05 04:07:13;;;;;;;32.70;19.38;;;;;;;;;;4962615;28;20095;-73
2023/12/05 04:09:39;;;;;;;33.40;19.40;;;;;;;;;;4968944;28;20026;-74
2023/12/05 04:12:05;;;;;;;29.85;19.67;;;;;;;;;;4959527;28;20430;-75
2023/12/05 04:14:31;;;;;;;33.30;20.15;;;;;;;;;;4959173;28;20053;-74
2023/12/05 04:16:57;;;;;;;32.00;19.33;;;;;;;;;;4965983;28;20357;-74
2023/12/05 04:19:23;;;;;;;34.08;19.55;;;;;;;;;;4957788;28;20035;-72
2023/12/05 04:21:49;;;;;;;33.95;20.48;;;;;;;;;;4970337;28;20057;-73
2023/12/05 04:24:15;;;;;;;32.65;19.92;;;;;;;;;;4958403;28;20030;-72
2023/12/05 04:26:41;;;;;;;32.92;18.80;;;;;;;;;;4990479;28;20725;-73
2023/12/05 04:29:07;;;;;;;32.55;20.00;;;;;;;;;;4963573;28;20093;-72
2023/12/05 04:31:33;;;;;;;32.67;19.33;;;;;;;;;;4962878;28;20042;-72
2023/12/05 04:33:59;;;;;;;30.70;19.48;;;;;;;;;;4982549;28;20099;-72
2023/12/05 04:36:25;;;;;;;29.83;18.80;;;;;;;;;;4951285;28;20215;-73
2023/12/05 04:38:57;;;;;;;30.77;19.15;;;;;;;;;;4982625;28;20023;-73
2023/12/05 04:41:23;;;;;;;30.95;19.10;;;;;;;;;;4963875;28;20035;-73
2023/12/05 04:43:49;;;;;;;31.83;19.67;;;;;;;;;;4954396;28;20039;-72
2023/12/05 04:46:15;;;;;;;27.25;18.45;;;;;;;;;;4961390;28;20450;-73
2023/12/05 04:48:40;;;;;;;29.45;19.35;;;;;;;;;;4958805;28;20038;-72
2023/12/05 04:51:07;;;;;;;32.35;19.52;;;;;;;;;;4964241;28;20030;-72
2023/12/05 04:53:32;;;;;;;31.67;19.45;;;;;;;;;;4960310;28;20093;-72
2023/12/05 04:55:58;;;;;;;30.45;19.27;;;;;;;;;;4962086;28;20474;-72
2023/12/05 04:58:25;;;;;;;35.72;20.73;;;;;;;;;;4955516;28;20141;-74
2023/12/05 05:00:51;;;;;;;22.63;16.17;;;;;;;;;;4962778;28;20486;-73
2023/12/05 05:03:17;;;;;;;27.92;18.13;;;;;;;;;;4958824;28;20059;-73
2023/12/05 05:05:43;;;;;;;31.13;19.42;;;;;;;;;;4959378;28;20483;-72
2023/12/05 05:08:09;;;;;;;32.33;21.13;;;;;;;;;;4956609;28;20050;-72
2023/12/05 05:10:35;;;;;;;31.50;20.35;;;;;;;;;;4960306;28;20513;-73
2023/12/05 05:13:01;;;;;;;35.03;19.98;;;;;;;;;;4957518;28;20031;-73
2023/12/05 05:15:27;;;;;;;28.27;18.45;;;;;;;;;;4960479;28;20556;-72
2023/12/05 05:17:53;;;;;;;34.85;20.40;;;;;;;;;;4960716;28;20403;-72
2023/12/05 05:20:20;;;;;;;33.05;21.30;;;;;;;;;;4959535;28;20046;-73
2023/12/05 05:22:46;;;;;;;32.20;20.90;;;;;;;;;;4959486;28;20467;-73
2023/12/05 05:25:12;;;;;;;34.33;20.88;;;;;;;;;;4959948;28;20109;-73
2023/12/05 05:27:38;;;;;;;34.90;21.58;;;;;;;;;;4960185;28;20126;-72
2023/12/05 05:30:04;;;;;;;33.22;20.85;;;;;;;;;;4960817;28;20408;-72
2023/12/05 05:32:30;;;;;;;38.83;20.95;;;;;;;;;;4963981;28;20042;-72
2023/12/05 05:34:56;;;;;;;36.38;21.88;;;;;;;;;;4964938;28;20039;-72
2023/12/05 05:37:22;;;;;;;35.05;21.63;;;;;;;;;;4955462;28;20118;-72
2023/12/05 05:39:48;;;;;;;35.70;22.17;;;;;;;;;;4957489;28;20035;-73
2023/12/05 05:42:14;;;;;;;34.13;21.52;;;;;;;;;;4967501;28;20031;-75
2023/12/05 05:44:40;;;;;;;32.90;20.38;;;;;;;;;;4964724;28;20636;-75
2023/12/05 05:47:06;;;;;;;33.83;21.30;;;;;;;;;;4963347;28;20039;-75
2023/12/05 05:49:32;;;;;;;31.40;20.50;;;;;;;;;;4957967;28;20026;-75
2023/12/05 05:51:58;;;;;;;30.30;20.17;;;;;;;;;;4962632;28;20264;-74
2023/12/05 05:54:24;;;;;;;31.95;21.02;;;;;;;;;;4962853;28;20344;-75
2023/12/05 05:56:50;;;;;;;32.15;21.00;;;;;;;;;;4964986;28;20053;-75
2023/12/05 05:59:16;;;;;;;32.20;19.60;;;;;;;;;;4966362;28;20283;-76
2023/12/05 06:01:42;;;;;;;29.55;19.08;;;;;;;;;;4976646;28;20241;-75
2023/12/05 06:04:08;;;;;;;31.73;19.88;;;;;;;;;;4963770;28;20466;-75
2023/12/05 06:06:34;;;;;;;31.77;20.08;;;;;;;;;;4957168;28;20144;-75
2023/12/05 06:09:00;;;;;;;33.58;20.70;;;;;;;;;;4958928;28;20039;-75
2023/12/05 06:11:26;;;;;;;30.40;19.45;;;;;;;;;;4956824;28;20808;-75
2023/12/05 06:13:52;;;;;;;31.73;20.40;;;;;;;;;;4960151;28;20105;-75
2023/12/05 06:16:18;;;;;;;32.05;19.77;;;;;;;;;;4956855;28;20142;-75
2023/12/05 06:18:44;;;;;;;28.83;19.27;;;;;;;;;;4958859;28;20038;-75
2023/12/05 06:21:10;;;;;;;30.27;19.30;;;;;;;;;;4954440;28;20053;-75
2023/12/05 06:23:38;;;;;;;30.13;19.65;;;;;;;;;;4960252;28;20026;-75
2023/12/05 06:26:04;;;;;;;29.38;18.48;;;;;;;;;;4960347;28;20414;-75
2023/12/05 06:28:31;;;;;;;32.35;18.38;;;;;;;;;;4968755;28;20178;-75
2023/12/05 06:30:57;;;;;;;29.15;18.60;;;;;;;;;;4959813;28;20046;-75
2023/12/05 06:33:23;;;;;;;31.45;20.08;;;;;;;;;;4961365;28;20039;-75
2023/12/05 06:35:49;;;;;;;30.92;20.02;;;;;;;;;;4962421;28;20031;-75
2023/12/05 06:38:15;;;;;;;32.03;19.30;;;;;;;;;;4960530;28;20042;-75
2023/12/05 06:40:41;;;;;;;31.42;18.65;;;;;;;;;;4965025;28;20046;-75
2023/12/05 06:43:08;;;;;;;31.45;19.83;;;;;;;;;;4956450;28;20035;-77
2023/12/05 06:45:34;;;;;;;31.90;19.38;;;;;;;;;;4970081;28;20152;-77
2023/12/05 06:48:00;;;;;;;30.33;19.00;;;;;;;;;;4963804;28;20061;-77
2023/12/05 06:50:26;;;;;;;26.40;18.35;;;;;;;;;;4967153;28;20058;-77
2023/12/05 06:52:57;;;;;;;31.15;19.98;;;;;;;;;;4960205;28;20043;-74
2023/12/05 06:55:23;;;;;;;29.35;18.40;;;;;;;;;;4993358;28;20460;-74
2023/12/05 06:57:49;;;;;;;31.63;18.73;;;;;;;;;;4964564;28;20412;-74
2023/12/05 07:00:17;;;;;;;29.02;19.20;;;;;;;;;;4959403;28;20061;-74
2023/12/05 07:02:43;;;;;;;29.67;19.63;;;;;;;;;;4962334;28;20066;-74
2023/12/05 07:05:09;;;;;;;28.85;18.92;;;;;;;;;;4960646;28;20498;-74
2023/12/05 07:07:35;;;;;;;29.95;18.25;;;;;;;;;;4988722;28;20157;-75
2023/12/05 07:10:02;;;;;;;31.73;18.92;;;;;;;;;;4960962;28;20035;-74
2023/12/05 07:12:28;;;;;;;33.50;19.23;;;;;;;;;;4967754;28;20180;-77
2023/12/05 07:14:54;;;;;;;26.65;18.35;;;;;;;;;;4964001;28;20552;-77
2023/12/05 07:17:20;;;;;;;30.25;17.95;;;;;;;;;;4955604;28;20039;-77
2023/12/05 07:19:47;;;;;;;30.10;17.98;;;;;;;;;;4962785;28;20035;-77
2023/12/05 07:22:13;;;;;;;29.15;17.73;;;;;;;;;;4961183;28;20115;-77
2023/12/05 07:24:39;;;;;;;27.98;17.83;;;;;;;;;;4960429;28;20079;-77
2023/12/05 07:27:05;;;;;;;28.83;17.83;;;;;;;;;;4959103;28;20061;-76
2023/12/05 07:29:30;;;;;;;26.85;16.70;;;;;;;;;;4957589;28;20027;-76
2023/12/05 07:31:56;;;;;;;28.45;17.98;;;;;;;;;;4955057;28;20690;-76
2023/12/05 07:34:22;;;;;;;26.20;17.20;;;;;;;;;;4961753;28;20443;-77
2023/12/05 07:36:48;;;;;;;24.58;17.05;;;;;;;;;;4960559;28;20043;-76
2023/12/05 07:39:14;;;;;;;31.70;17.58;;;;;;;;;;4960223;28;20065;-77
2023/12/05 07:41:41;;;;;;;25.63;16.65;;;;;;;;;;4959506;28;20042;-76
2023/12/05 07:44:07;;;;;;;26.40;16.05;;;;;;;;;;4955276;28;20443;-77
2023/12/05 07:46:33;;;;;;;23.70;16.80;;;;;;;;;;4959424;28;20697;-77
2023/12/05 07:48:59;;;;;;;30.33;17.15;;;;;;;;;;4961526;28;20101;-76
2023/12/05 07:51:25;;;;;;;30.17;17.23;;;;;;;;;;4960275;28;20468;-77
2023/12/05 07:53:51;;;;;;;25.60;16.55;;;;;;;;;;4958359;28;20392;-76
2023/12/05 07:56:18;;;;;;;29.45;18.33;;;;;;;;;;4955613;28;20038;-76
2023/12/05 07:58:43;;;;;;;24.42;17.05;;;;;;;;;;4961572;28;20054;-77
2023/12/05 08:01:09;;;;;;;28.73;16.98;;;;;;;;;;4959780;28;20050;-77
2023/12/05 08:03:35;;;;;;;25.92;17.25;;;;;;;;;;4953217;28;20111;-76
2023/12/05 08:06:02;;;;;;;26.63;16.77;;;;;;;;;;4958768;28;20351;-75
2023/12/05 08:08:30;;;;;;;26.80;16.48;;;;;;;;;;4947742;28;20436;-76
2023/12/05 08:10:57;;;;;;;29.73;17.13;;;;;;;;;;4951836;28;20451;-76
2023/12/05 08:13:22;;;;;;;26.23;16.52;;;;;;;;;;4971296;23;20328;-73
2023/12/05 08:15:49;;;;;;;30.13;16.73;;;;;;;;;;4979757;28;20123;-74
2023/12/05 08:18:15;;;;;;;29.70;15.85;;;;;;;;;;4957756;28;20403;-74
2023/12/05 08:20:41;;;;;;;24.40;14.00;;;;;;;;;;4974543;28;20106;-74
2023/12/05 08:23:06;;;;;;;24.02;15.38;;;;;;;;;;4971019;28;20260;-74
2023/12/05 08:25:32;;;;;;;21.90;14.68;;;;;;;;;;4975961;28;20042;-74
2023/12/05 08:27:58;;;;;;;22.10;14.07;;;;;;;;;;4974829;28;20062;-74
2023/12/05 08:30:24;;;;;;;20.52;13.18;;;;;;;;;;4980724;28;20403;-74
2023/12/05 08:32:50;;;;;;;23.65;14.73;;;;;;;;;;4978430;28;20139;-74
2023/12/05 08:35:16;;;;;;;18.30;13.13;;;;;;;;;;4977560;28;20053;-74
2023/12/05 08:37:42;;;;;;;22.73;13.95;;;;;;;;;;4970095;28;20165;-74
2023/12/05 08:40:09;;;;;;;24.70;14.13;;;;;;;;;;4975902;28;20513;-74
2023/12/05 08:42:35;;;;;;;21.50;14.23;;;;;;;;;;4975242;28;20482;-75
2023/12/05 08:45:01;;;;;;;17.73;12.50;;;;;;;;;;4980888;28;20088;-75
2023/12/05 08:47:27;;;;;;;20.42;13.77;;;;;;;;;;4972470;28;20762;-74
2023/12/05 08:49:53;;;;;;;21.63;13.15;;;;;;;;;;4972614;28;20070;-74
2023/12/05 08:52:21;;;;;;;25.58;12.88;;;;;;;;;;4966245;28;20065;-77
2023/12/05 08:54:47;;;;;;;19.25;13.32;;;;;;;;;;4983225;28;20037;-77
2023/12/05 08:57:13;;;;;;;17.85;12.70;;;;;;;;;;4979564;28;20042;-77
2023/12/05 08:59:40;;;;;;;21.38;12.55;;;;;;;;;;4976815;28;20169;-77
2023/12/05 09:02:07;;;;;;;18.40;12.23;;;;;;;;;;4978337;28;20149;-76
2023/12/05 09:04:33;;;;;;;18.35;12.15;;;;;;;;;;4978486;28;20430;-76
2023/12/05 09:06:59;;;;;;;16.73;11.30;;;;;;;;;;4980868;28;20475;-77
2023/12/05 09:09:25;;;;;;;19.65;12.40;;;;;;;;;;4979863;28;20038;-76
2023/12/05 09:11:51;;;;;;;17.83;11.82;;;;;;;;;;4975662;28;20061;-73
2023/12/05 09:14:17;;;;;;;17.48;11.55;;;;;;;;;;4978837;28;20053;-73
2023/12/05 09:16:43;;;;;;;18.15;11.40;;;;;;;;;;4978314;28;20046;-74
2023/12/05 09:19:09;;;;;;;18.20;10.93;;;;;;;;;;4979978;28;20161;-74
2023/12/05 09:21:35;;;;;;;15.45;10.18;;;;;;;;;;4977898;28;20042;-73
2023/12/05 09:24:01;;;;;;;15.55;10.60;;;;;;;;;;4978597;28;20040;-74
2023/12/05 09:26:27;;;;;;;16.98;10.18;;;;;;;;;;4981699;28;20065;-73
2023/12/05 09:28:53;;;;;;;16.33;10.57;;;;;;;;;;4974677;28;20045;-74
2023/12/05 09:31:19;;;;;;;14.48;9.63;;;;;;;;;;4973844;28;20544;-73
2023/12/05 09:33:46;;;;;;;15.68;10.57;;;;;;;;;;4979905;28;20065;-73
2023/12/05 09:36:12;;;;;;;14.93;9.98;;;;;;;;;;4981276;28;20465;-74
2023/12/05 09:38:38;;;;;;;16.15;9.80;;;;;;;;;;4988464;23;20153;-73
2023/12/05 09:41:04;;;;;;;16.35;9.05;;;;;;;;;;4982589;28;20057;-74
2023/12/05 09:43:32;;;;;;;12.68;8.38;;;;;;;;;;4978148;28;20057;-73
2023/12/05 09:46:01;;;;;;;12.80;8.65;;;;;;;;;;4977062;28;20030;-74
2023/12/05 09:48:33;;;;;;;16.48;9.27;;;;;;;;;;4972968;28;20034;-74
2023/12/05 09:50:59;;;;;;;14.88;8.55;;;;;;;;;;4973899;28;20482;-74
2023/12/05 09:53:27;;;;;;;10.60;7.90;;;;;;;;;;4974424;28;20034;-73
2023/12/05 09:55:53;;;;;;;12.75;7.93;;;;;;;;;;4977362;28;20117;-74
2023/12/05 09:58:19;;;;;;;12.13;8.30;;;;;;;;;;4970491;28;20529;-74
2023/12/05 10:00:45;;;;;;;13.98;9.02;;;;;;;;;;4978514;28;20612;-74
2023/12/05 10:03:15;;;;;;;17.35;9.30;;;;;;;;;;4971467;28;20038;-74
2023/12/05 10:05:42;;;;;;;13.98;8.30;;;;;;;;;;4980619;28;20046;-74
2023/12/05 10:08:08;;;;;;;11.60;8.27;;;;;;;;;;4977824;28;20041;-74
2023/12/05 10:10:35;;;;;;;11.30;7.65;;;;;;;;;;4976937;28;20041;-73
2023/12/05 10:13:02;;;;;;;11.15;6.75;;;;;;;;;;4975668;28;20034;-74
2023/12/05 10:15:29;;;;;;;11.10;7.90;;;;;;;;;;4981782;28;20469;-73
2023/12/05 10:17:56;;;;;;;11.80;7.40;;;;;;;;;;4984511;28;20045;-73
2023/12/05 10:20:22;;;;;;;15.02;6.63;;;;;;;;;;4987888;28;20146;-73
2023/12/05 10:22:48;;;;;;;9.65;5.43;;;;;;;;;;4983449;28;20050;-75
2023/12/05 10:25:15;;;;;;;7.57;5.13;;;;;;;;;;4989618;28;20042;-73
2023/12/05 10:27:41;;;;;;;8.50;5.45;;;;;;;;;;4979698;28;20030;-73
2023/12/05 10:30:07;;;;;;;8.05;5.28;;;;;;;;;;4979351;28;20034;-72
2023/12/05 10:32:33;;;;;;;0.00;0.00;;;;;;;;;;4983568;28;20035;-73
2023/12/05 10:35:03;;;;;;;0.00;0.00;;;;;;;;;;4983435;28;20379;-72
2023/12/05 10:37:29;;;;;;;0.00;0.00;;;;;;;;;;4981170;28;20066;-72
2023/12/05 10:40:00;;;;;;;0.00;0.00;;;;;;;;;;4975253;28;20045;-73
2023/12/05 10:42:28;;;;;;;8.05;5.50;;;;;;;;;;4967963;28;20034;-72
2023/12/05 10:44:57;;;;;;;8.68;5.50;;;;;;;;;;4980695;28;20498;-73
2023/12/05 10:47:29;;;;;;;9.95;4.80;;;;;;;;;;4967409;28;20055;-73
2023/12/05 10:49:55;;;;;;;7.10;4.85;;;;;;;;;;4966061;28;20042;-73
2023/12/05 10:52:21;;;;;;;11.52;5.50;;;;;;;;;;4974872;28;20130;-72
2023/12/05 10:54:54;;;;;;;9.18;5.18;;;;;;;;;;4983056;28;20046;-73
2023/12/05 10:57:30;;;;;;;6.30;3.53;;;;;;;;;;4979181;28;20046;-73
2023/12/05 10:59:57;;;;;;;10.30;5.55;;;;;;;;;;4975059;28;20030;-73
2023/12/05 11:02:23;;;;;;;9.38;5.20;;;;;;;;;;4978730;28;20358;-73
2023/12/05 11:04:50;;;;;;;4.75;3.80;;;;;;;;;;4982102;28;20454;-73
2023/12/05 11:07:16;;;;;;;7.80;5.10;;;;;;;;;;4989740;28;20217;-73
2023/12/05 11:09:43;;;;;;;8.20;5.40;;;;;;;;;;4971690;28;20564;-73
2023/12/05 11:12:09;;;;;;;9.23;5.22;;;;;;;;;;4975429;28;20318;-73
2023/12/05 11:14:38;;;;;;;9.15;4.90;;;;;;;;;;4972601;28;20034;-74
2023/12/05 11:17:05;;;;;;;6.35;4.10;;;;;;;;;;4990233;28;20034;-73
2023/12/05 11:19:47;;;;;;;6.78;4.05;;;;;;;;;;4979455;28;20042;-73
2023/12/05 11:22:30;;;;;;;6.68;4.43;;;;;;;;;;4962682;28;20356;-73
2023/12/05 11:25:04;;;;;;;6.03;3.90;;;;;;;;;;4966845;28;20043;-73
2023/12/05 11:27:35;;;;;;;7.95;3.47;;;;;;;;;;4982548;28;20046;-73
2023/12/05 11:30:10;;;;;;;5.80;3.58;;;;;;;;;;4984800;28;20038;-74
2023/12/05 11:32:54;;;;;;;8.10;4.28;;;;;;;;;;4984075;28;20125;-74
2023/12/05 11:35:25;;;;;;;6.85;4.00;;;;;;;;;;4985501;28;20046;-74
2023/12/05 11:37:54;;;;;;;10.65;5.68;;;;;;;;;;4982660;28;20445;-74
2023/12/05 11:40:20;;;;;;;7.38;4.50;;;;;;;;;;4975574;28;20062;-73
2023/12/05 11:43:05;;;;;;;5.20;3.67;;;;;;;;;;4971459;28;20096;-77
2023/12/05 11:45:31;;;;;;;5.20;3.63;;;;;;;;;;4989384;28;20037;-76
2023/12/05 11:48:01;;;;;;;4.32;3.28;;;;;;;;;;4980697;28;20038;-73
2023/12/05 11:50:38;;;;;;;6.22;3.60;;;;;;;;;;4980480;28;20047;-73
2023/12/05 11:53:07;;;;;;;6.78;3.80;;;;;;;;;;4980208;28;20060;-76
2023/12/05 11:55:33;;;;;;;4.20;3.17;;;;;;;;;;4980819;28;20137;-77
2023/12/05 11:57:59;;;;;;;4.82;3.72;;;;;;;;;;4972938;28;20129;-77
2023/12/05 12:00:26;;;;;;;5.45;3.97;;;;;;;;;;4979481;28;20053;-76
2023/12/05 12:02:57;;;;;;;5.68;3.50;;;;;;;;;;4977982;28;20035;-77
2023/12/05 12:05:23;;;;;;;4.40;3.30;;;;;;;;;;4967088;28;20173;-76
2023/12/05 12:07:53;;;;;;;6.25;3.60;;;;;;;;;;4979501;28;20054;-76
2023/12/05 12:10:19;;;;;;;4.63;3.30;;;;;;;;;;4971047;28;20134;-77
2023/12/05 12:12:46;;;;;;;4.30;3.35;;;;;;;;;;4973997;28;20555;-77
2023/12/05 12:15:15;;;;;;;4.47;3.35;;;;;;;;;;4979035;28;20042;-77
2023/12/05 12:17:42;;;;;;;4.35;3.28;;;;;;;;;;4971595;28;20383;-76
2023/12/05 12:20:11;;;;;;;29.77;18.05;;;;;;;;;;4977559;28;20054;-77
2023/12/05 12:22:37;;;;;;;19.25;12.98;;;;;;;;;;4974181;28;20019;-77
2023/12/05 12:25:11;;;;;;;6.28;4.47;;;;;;;;;;4974904;28;20402;-77
2023/12/05 12:27:38;;;;;;;14.13;10.35;;;;;;;;;;4977925;28;20208;-78
2023/12/05 12:30:05;;;;;;;18.50;12.15;;;;;;;;;;4980054;28;20189;-77
2023/12/05 12:32:35;;;;;;;17.55;12.77;;;;;;;;;;4982049;28;20046;-77
2023/12/05 12:35:02;;;;;;;17.05;12.32;;;;;;;;;;4979635;28;20832;-77
2023/12/05 12:37:29;;;;;;;17.52;13.00;;;;;;;;;;4980314;28;20486;-77
2023/12/05 12:39:55;;;;;;;18.10;13.55;;;;;;;;;;4966142;28;20645;-77
2023/12/05 12:42:21;;;;;;;16.83;12.20;;;;;;;;;;4967435;28;20066;-77
2023/12/05 12:44:47;;;;;;;18.77;13.25;;;;;;;;;;4976251;28;20030;-77
2023/12/05 12:47:14;;;;;;;18.05;12.98;;;;;;;;;;4971589;28;20041;-76
2023/12/05 12:49:40;;;;;;;20.30;13.95;;;;;;;;;;4975996;28;20390;-77
2023/12/05 12:52:06;;;;;;;18.90;13.50;;;;;;;;;;4982907;28;20041;-78
2023/12/05 12:54:33;;;;;;;20.88;14.75;;;;;;;;;;4979738;28;20065;-76
2023/12/05 12:56:59;;;;;;;19.60;14.10;;;;;;;;;;4980099;28;20417;-77
2023/12/05 12:59:26;;;;;;;20.00;14.70;;;;;;;;;;4977895;28;20043;-77
2023/12/05 13:01:52;;;;;;;23.13;15.27;;;;;;;;;;4971231;28;20335;-73
2023/12/05 13:04:18;;;;;;;22.60;14.75;;;;;;;;;;4971864;28;20042;-73
2023/12/05 13:06:47;;;;;;;23.13;15.57;;;;;;;;;;4979422;28;20116;-72
2023/12/05 13:09:17;;;;;;;24.95;15.43;;;;;;;;;;4966750;28;20449;-74
2023/12/05 13:11:44;;;;;;;26.35;16.65;;;;;;;;;;4981633;28;20046;-72
2023/12/05 13:14:11;;;;;;;30.17;18.67;;;;;;;;;;4974209;28;20457;-73
2023/12/05 13:16:38;;;;;;;28.05;18.08;;;;;;;;;;4984988;28;20034;-73
2023/12/05 13:19:04;;;;;;;33.83;20.17;;;;;;;;;;4976879;28;20359;-74
2023/12/05 13:21:31;;;;;;;37.33;22.33;;;;;;;;;;4982302;28;20589;-73
2023/12/05 13:23:57;;;;;;;39.28;22.90;;;;;;;;;;4977378;28;20045;-74
2023/12/05 13:26:24;;;;;;;41.53;24.00;;;;;;;;;;4974835;28;20039;-75
2023/12/05 13:28:50;;;;;;;41.95;23.75;;;;;;;;;;4975869;28;20030;-75
2023/12/05 13:31:17;;;;;;;40.75;24.02;;;;;;;;;;4974458;28;20046;-74
2023/12/05 13:33:43;;;;;;;43.13;24.58;;;;;;;;;;4979544;28;20108;-74
2023/12/05 13:36:09;;;;;;;45.05;25.40;;;;;;;;;;4976474;28;20545;-74
2023/12/05 13:38:35;;;;;;;42.75;25.13;;;;;;;;;;4980374;28;20088;-74
2023/12/05 13:41:01;;;;;;;44.08;23.65;;;;;;;;;;4978670;28;20034;-74
2023/12/05 13:43:27;;;;;;;43.95;22.50;;;;;;;;;;4973995;28;20113;-74
2023/12/05 13:45:53;;;;;;;41.50;23.02;;;;;;;;;;4978734;28;20057;-74
2023/12/05 13:48:19;;;;;;;42.60;23.27;;;;;;;;;;4987549;28;20046;-73
2023/12/05 13:50:45;;;;;;;43.00;23.10;;;;;;;;;;4973890;28;20507;-73
2023/12/05 13:53:11;;;;;;;41.95;23.20;;;;;;;;;;4977468;28;20050;-74
2023/12/05 13:55:37;;;;;;;46.15;23.77;;;;;;;;;;4979726;28;20060;-74
2023/12/05 13:58:03;;;;;;;41.63;24.08;;;;;;;;;;4971172;28;20034;-74
2023/12/05 14:00:29;;;;;;;71.70;33.10;;;;;;;;;;4976904;28;20038;-74
2023/12/05 14:02:56;;;;;;;55.08;30.25;;;;;;;;;;4977592;28;20111;-73
2023/12/05 14:05:22;;;;;;;48.67;27.08;;;;;;;;;;4980113;28;20043;-73
2023/12/05 14:07:48;;;;;;;48.70;27.13;;;;;;;;;;4982681;28;20104;-72
2023/12/05 14:10:14;;;;;;;47.95;25.80;;;;;;;;;;4982438;28;20035;-73
2023/12/05 14:12:40;;;;;;;39.10;23.75;;;;;;;;;;4976296;28;20062;-73
2023/12/05 14:15:06;;;;;;;55.60;28.42;;;;;;;;;;4976236;28;20042;-72
2023/12/05 14:17:32;;;;;;;53.47;26.98;;;;;;;;;;4978460;28;20052;-72
2023/12/05 14:20:00;;;;;;;53.35;27.25;;;;;;;;;;4971221;28;20027;-72